Time,TemperatureF,DewpointF,PressureIn,WindDirection,WindDirectionDegrees,WindSpeedMPH,WindSpeedGustMPH,Humidity,HourlyPrecipIn,Conditions,Clouds,dailyrainin,SoftwareType,DateUTC
2013-02-22 11:06:00,37.8,36.5,29.76,South,180,29.5,31.0,95,0.00,,,0.00,WUHU216HW,2013-02-22 19:06:00,
2013-02-22 11:07:00,37.8,36.5,29.76,South,180,29.5,31.0,95,0.00,,,0.00,WUHU216HW,2013-02-22 19:07:00,
2013-02-22 11:12:00,37.8,36.5,29.74,South,180,14.4,31.0,95,0.00,,,0.00,WUHU216HW,2013-02-22 19:12:00,
2013-02-22 11:17:00,38.0,36.6,29.74,ESE,113,6.9,20.8,95,0.00,,,0.00,WUHU216HW,2013-02-22 19:17:00,
2013-02-22 11:23:00,38.2,37.1,29.74,ENE,68,2.8,19.9,96,0.00,,,0.00,WUHU216HW,2013-02-22 19:23:00,
2013-02-22 11:28:00,38.0,36.9,29.75,SSW,203,14.8,18.1,96,0.00,,,0.00,WUHU216HW,2013-02-22 19:28:00,
2013-02-22 11:33:00,38.3,37.2,29.74,SE,135,5.2,18.1,96,0.00,,,0.00,WUHU216HW,2013-02-22 19:33:00,
2013-02-22 11:38:00,38.3,37.2,29.73,ENE,68,3.8,14.5,96,0.00,,,0.00,WUHU216HW,2013-02-22 19:38:00,
2013-02-22 11:43:00,38.5,37.4,29.74,SE,135,0.0,14.5,96,0.00,,,0.00,WUHU216HW,2013-02-22 19:43:00,
2013-02-22 11:48:00,38.6,37.5,29.74,SSW,203,3.8,8.2,96,0.00,,,0.00,WUHU216HW,2013-02-22 19:48:00,
2013-02-22 11:53:00,38.5,37.4,29.74,WSW,248,0.0,9.3,96,0.00,,,0.00,WUHU216HW,2013-02-22 19:53:00,
2013-02-22 11:58:00,38.4,37.4,29.73,SE,135,7.4,17.0,96,0.00,,,0.00,WUHU216HW,2013-02-22 19:58:00,
2013-02-22 12:03:00,38.4,37.4,29.74,South,180,6.9,17.0,96,0.00,,,0.00,WUHU216HW,2013-02-22 20:03:00,
2013-02-22 12:08:00,38.4,37.3,29.74,SSE,158,3.8,15.4,96,0.00,,,0.00,WUHU216HW,2013-02-22 20:08:00,
2013-02-22 12:14:00,38.2,36.9,29.73,South,180,13.3,17.0,95,0.00,,,0.00,WUHU216HW,2013-02-22 20:14:00,
2013-02-22 12:19:00,38.4,37.0,29.73,SSW,203,5.2,17.0,95,0.00,,,0.00,WUHU216HW,2013-02-22 20:19:00,
2013-02-22 12:24:00,38.4,37.3,29.73,SSE,158,2.8,16.1,96,0.00,,,0.00,WUHU216HW,2013-02-22 20:24:00,
2013-02-22 12:29:00,38.2,37.1,29.72,SSE,158,8.3,19.6,96,0.00,,,0.00,WUHU216HW,2013-02-22 20:29:00,
2013-02-22 12:34:00,38.2,37.1,29.73,North,0,0.0,19.6,96,0.00,,,0.00,WUHU216HW,2013-02-22 20:34:00,
2013-02-22 12:39:00,38.4,37.3,29.71,South,180,1.4,12.3,96,0.00,,,0.00,WUHU216HW,2013-02-22 20:39:00,
2013-02-22 12:44:00,38.3,37.3,29.71,SSE,158,0.0,12.5,96,0.00,,,0.00,WUHU216HW,2013-02-22 20:44:00,
2013-02-22 12:49:00,38.4,37.4,29.71,SE,135,0.8,12.5,96,0.00,,,0.00,WUHU216HW,2013-02-22 20:49:00,
2013-02-22 12:54:00,38.4,37.3,29.70,SE,135,3.8,15.8,96,0.00,,,0.00,WUHU216HW,2013-02-22 20:54:00,
2013-02-22 13:00:00,38.4,37.3,29.70,SSE,158,0.4,15.8,96,0.00,,,0.00,WUHU216HW,2013-02-22 21:00:00,
2013-02-22 13:05:00,38.6,37.5,29.70,SE,135,9.5,22.3,96,0.00,,,0.00,WUHU216HW,2013-02-22 21:05:00,
2013-02-22 13:10:00,38.8,37.7,29.69,SSW,203,5.7,22.3,96,0.00,,,0.00,WUHU216HW,2013-02-22 21:10:00,
2013-02-22 13:15:00,39.0,37.9,29.68,NE,45,0.0,23.2,96,0.00,,,0.00,WUHU216HW,2013-02-22 21:15:00,
2013-02-22 13:20:00,39.2,38.1,29.68,East,90,2.9,23.2,96,0.00,,,0.00,WUHU216HW,2013-02-22 21:20:00,
2013-02-22 13:25:00,39.3,38.2,29.67,SSW,203,8.5,13.4,96,0.00,,,0.00,WUHU216HW,2013-02-22 21:25:00,
2013-02-22 13:30:00,39.5,38.4,29.67,SSE,158,14.2,14.9,96,0.00,,,0.00,WUHU216HW,2013-02-22 21:30:00,
2013-02-22 13:35:00,39.7,38.6,29.66,SSE,158,6.9,15.8,96,0.00,,,0.00,WUHU216HW,2013-02-22 21:35:00,
2013-02-22 13:41:00,39.7,38.3,29.67,SSE,158,9.1,16.7,95,0.00,,,0.00,WUHU216HW,2013-02-22 21:41:00,
2013-02-22 13:46:00,39.7,38.3,29.67,South,180,14.4,16.7,95,0.00,,,0.00,WUHU216HW,2013-02-22 21:46:00,
2013-02-22 13:51:00,39.7,38.3,29.68,SSE,158,10.0,15.2,95,0.00,,,0.00,WUHU216HW,2013-02-22 21:51:00,
2013-02-22 13:56:00,39.7,38.3,29.67,South,180,11.7,15.8,95,0.00,,,0.00,WUHU216HW,2013-02-22 21:56:00,
2013-02-22 14:02:00,39.7,38.6,29.68,South,180,4.2,15.8,96,0.00,,,0.00,WUHU216HW,2013-02-22 22:02:00,
2013-02-22 14:07:00,39.7,38.6,29.67,SSE,158,10.2,15.4,96,0.00,,,0.00,WUHU216HW,2013-02-22 22:07:00,
2013-02-22 14:12:00,39.9,38.8,29.67,SSW,203,14.6,22.5,96,0.00,,,0.00,WUHU216HW,2013-02-22 22:12:00,
2013-02-22 14:17:00,40.2,39.1,29.67,SSW,203,10.2,22.5,96,0.00,,,0.00,WUHU216HW,2013-02-22 22:17:00,
2013-02-22 14:23:00,40.6,39.5,29.66,South,180,17.2,19.0,96,0.00,,,0.00,WUHU216HW,2013-02-22 22:23:00,
2013-02-22 14:28:00,40.6,39.5,29.66,South,180,11.4,19.0,96,0.00,,,0.00,WUHU216HW,2013-02-22 22:28:00,
2013-02-22 14:33:00,40.8,39.7,29.66,SSE,158,11.0,12.0,96,0.00,,,0.00,WUHU216HW,2013-02-22 22:33:00,
2013-02-22 14:38:00,40.8,39.7,29.66,SE,135,6.6,11.6,96,0.00,,,0.00,WUHU216HW,2013-02-22 22:38:00,
2013-02-22 14:43:00,40.6,39.2,29.66,SE,135,3.3,15.2,95,0.00,,,0.00,WUHU216HW,2013-02-22 22:43:00,
2013-02-22 14:49:00,40.6,39.2,29.66,SSW,203,16.7,17.6,95,0.00,,,0.00,WUHU216HW,2013-02-22 22:49:00,
2013-02-22 14:54:00,40.8,39.5,29.66,South,180,6.7,17.6,95,0.00,,,0.00,WUHU216HW,2013-02-22 22:54:00,
2013-02-22 14:59:00,41.5,40.1,29.66,SSE,158,3.8,12.3,95,0.00,,,0.00,WUHU216HW,2013-02-22 22:59:00,
2013-02-22 15:04:00,42.0,40.9,29.66,SE,135,10.8,13.4,96,0.00,,,0.00,WUHU216HW,2013-02-22 23:04:00,
2013-02-22 15:09:00,42.6,41.2,29.66,South,180,9.5,13.6,95,0.00,,,0.00,WUHU216HW,2013-02-22 23:09:00,
2013-02-22 15:14:00,42.6,41.0,29.66,SE,135,13.3,14.0,94,0.00,,,0.00,WUHU216HW,2013-02-22 23:14:00,
2013-02-22 15:19:00,42.4,40.8,29.66,SSE,158,3.6,14.5,94,0.00,,,0.00,WUHU216HW,2013-02-22 23:19:00,
2013-02-22 15:24:00,42.6,41.0,29.66,SSE,158,7.6,19.9,94,0.00,,,0.00,WUHU216HW,2013-02-22 23:24:00,
2013-02-22 15:29:00,43.3,41.4,29.66,SSW,203,10.4,19.9,93,0.00,,,0.00,WUHU216HW,2013-02-22 23:29:00,
2013-02-22 15:34:00,43.6,41.3,29.66,SSW,203,2.5,12.7,92,0.00,,,0.00,WUHU216HW,2013-02-22 23:34:00,
2013-02-22 15:39:00,44.3,41.5,29.66,SE,135,4.4,10.2,90,0.00,,,0.00,WUHU216HW,2013-02-22 23:39:00,
2013-02-22 15:44:00,44.5,40.2,29.67,South,180,11.7,12.9,85,0.00,,,0.00,WUHU216HW,2013-02-22 23:44:00,
2013-02-22 15:49:00,45.0,40.1,29.66,SSE,158,7.8,12.9,83,0.00,,,0.00,WUHU216HW,2013-02-22 23:49:00,
2013-02-22 15:54:00,45.2,39.7,29.67,WSW,248,4.2,8.2,81,0.00,,,0.00,WUHU216HW,2013-02-22 23:54:00,
2013-02-22 15:59:00,45.2,39.1,29.67,WSW,248,13.8,14.5,79,0.00,,,0.00,WUHU216HW,2013-02-22 23:59:00,
2013-02-22 16:05:00,45.0,38.6,29.67,SW,225,6.4,17.2,78,0.00,,,0.00,WUHU216HW,2013-02-23 00:05:00,
2013-02-22 16:10:00,44.9,38.1,29.67,SSE,158,17.4,18.3,77,0.00,,,0.00,WUHU216HW,2013-02-23 00:10:00,
2013-02-22 16:15:00,44.6,38.5,29.67,South,180,6.1,18.3,79,0.00,,,0.00,WUHU216HW,2013-02-23 00:15:00,
2013-02-22 16:21:00,44.4,38.0,29.67,SSW,203,7.4,14.9,78,0.00,,,0.00,WUHU216HW,2013-02-23 00:21:00,
2013-02-22 16:26:00,44.4,38.3,29.67,SSW,203,7.6,9.3,79,0.00,,,0.00,WUHU216HW,2013-02-23 00:26:00,
2013-02-22 16:31:00,44.4,38.4,29.67,SSW,203,1.9,8.5,79,0.00,,,0.00,WUHU216HW,2013-02-23 00:31:00,
2013-02-22 16:36:00,44.5,38.1,29.67,SE,135,2.8,11.1,78,0.00,,,0.00,WUHU216HW,2013-02-23 00:36:00,
2013-02-22 16:41:00,44.1,37.4,29.67,WSW,248,0.0,11.1,77,0.00,,,0.00,WUHU216HW,2013-02-23 00:41:00,
2013-02-22 16:46:00,44.0,37.0,29.67,SSW,203,5.0,10.2,76,0.00,,,0.00,WUHU216HW,2013-02-23 00:46:00,
2013-02-22 16:51:00,43.6,36.3,29.68,SW,225,2.3,10.0,75,0.00,,,0.00,WUHU216HW,2013-02-23 00:51:00,
2013-02-22 16:56:00,43.5,36.1,29.69,WSW,248,5.5,10.0,75,0.00,,,0.00,WUHU216HW,2013-02-23 00:56:00,
2013-02-22 17:01:00,43.3,36.0,29.69,SE,135,2.8,8.5,75,0.00,,,0.00,WUHU216HW,2013-02-23 01:01:00,
2013-02-22 17:06:00,43.0,35.7,29.69,WSW,248,0.0,8.5,75,0.00,,,0.00,WUHU216HW,2013-02-23 01:06:00,
2013-02-22 17:11:00,42.7,35.0,29.69,ENE,68,0.0,6.0,74,0.00,,,0.00,WUHU216HW,2013-02-23 01:11:00,
2013-02-22 17:16:00,42.2,34.2,29.69,ESE,113,4.8,8.5,73,0.00,,,0.00,WUHU216HW,2013-02-23 01:16:00,
2013-02-22 17:21:00,42.0,34.4,29.69,SSW,203,0.0,9.1,74,0.00,,,0.00,WUHU216HW,2013-02-23 01:21:00,
2013-02-22 17:26:00,41.6,34.0,29.70,South,180,1.0,13.1,74,0.00,,,0.00,WUHU216HW,2013-02-23 01:26:00,
2013-02-22 17:31:00,41.4,33.8,29.69,SW,225,5.5,13.1,74,0.00,,,0.00,WUHU216HW,2013-02-23 01:31:00,
2013-02-22 17:36:00,40.8,33.6,29.69,South,180,5.7,8.9,75,0.00,,,0.00,WUHU216HW,2013-02-23 01:36:00,
2013-02-22 17:41:00,40.5,33.6,29.70,SSE,158,9.3,14.9,76,0.00,,,0.00,WUHU216HW,2013-02-23 01:41:00,
2013-02-22 17:46:00,40.4,33.8,29.70,SW,225,1.4,15.6,77,0.00,,,0.00,WUHU216HW,2013-02-23 01:46:00,
2013-02-22 17:51:00,40.0,33.4,29.71,West,270,4.0,15.6,77,0.00,,,0.00,WUHU216HW,2013-02-23 01:51:00,
2013-02-22 17:56:00,39.9,34.0,29.71,SSE,158,3.1,12.7,79,0.00,,,0.00,WUHU216HW,2013-02-23 01:56:00,
2013-02-22 18:01:00,39.6,33.9,29.71,SE,135,1.9,12.7,80,0.00,,,0.00,WUHU216HW,2013-02-23 02:01:00,
2013-02-22 18:06:00,39.4,34.1,29.71,SSW,203,1.9,9.1,81,0.00,,,0.00,WUHU216HW,2013-02-23 02:06:00,
2013-02-22 18:12:00,39.1,33.8,29.71,WSW,248,3.1,9.1,81,0.00,,,0.00,WUHU216HW,2013-02-23 02:12:00,
2013-02-22 18:17:00,39.2,34.1,29.72,SSE,158,6.6,7.1,82,0.00,,,0.00,WUHU216HW,2013-02-23 02:17:00,
2013-02-22 18:22:00,39.0,34.0,29.72,ESE,113,2.5,9.6,82,0.00,,,0.00,WUHU216HW,2013-02-23 02:22:00,
2013-02-22 18:27:00,38.8,33.8,29.72,SE,135,3.3,9.6,82,0.00,,,0.00,WUHU216HW,2013-02-23 02:27:00,
2013-02-22 18:32:00,38.6,33.6,29.74,WNW,293,0.0,7.8,82,0.00,,,0.00,WUHU216HW,2013-02-23 02:32:00,
2013-02-22 18:37:00,38.5,33.5,29.74,SE,135,3.6,7.8,82,0.00,,,0.00,WUHU216HW,2013-02-23 02:37:00,
2013-02-22 18:42:00,38.5,33.2,29.74,SSW,203,5.7,12.0,81,0.00,,,0.00,WUHU216HW,2013-02-23 02:42:00,
2013-02-22 18:47:00,38.5,33.2,29.74,SSW,203,5.0,12.0,81,0.00,,,0.00,WUHU216HW,2013-02-23 02:47:00,
2013-02-22 18:52:00,38.4,33.1,29.74,SSW,203,8.5,9.8,81,0.00,,,0.00,WUHU216HW,2013-02-23 02:52:00,
2013-02-22 18:57:00,38.5,32.9,29.74,South,180,11.7,17.4,80,0.00,,,0.00,WUHU216HW,2013-02-23 02:57:00,
2013-02-22 19:02:00,38.4,32.8,29.74,South,180,3.1,17.4,80,0.00,,,0.00,WUHU216HW,2013-02-23 03:02:00,
2013-02-22 19:07:00,38.2,32.6,29.74,SSE,158,2.8,10.0,80,0.00,,,0.00,WUHU216HW,2013-02-23 03:07:00,
2013-02-22 19:12:00,38.2,32.6,29.74,SSW,203,3.1,11.6,80,0.00,,,0.00,WUHU216HW,2013-02-23 03:12:00,
2013-02-22 19:17:00,38.0,32.7,29.74,SSE,158,8.8,11.6,81,0.00,,,0.00,WUHU216HW,2013-02-23 03:17:00,
2013-02-22 19:23:00,37.6,32.0,29.75,SE,135,5.2,9.6,80,0.00,,,0.00,WUHU216HW,2013-02-23 03:23:00,
2013-02-22 19:28:00,37.6,32.3,29.75,South,180,4.2,9.8,81,0.00,,,0.00,WUHU216HW,2013-02-23 03:28:00,
2013-02-22 19:33:00,37.3,32.3,29.76,SE,135,0.0,9.8,82,0.00,,,0.00,WUHU216HW,2013-02-23 03:33:00,
2013-02-22 19:38:00,37.1,32.4,29.76,SSE,158,3.1,5.5,83,0.00,,,0.00,WUHU216HW,2013-02-23 03:38:00,
2013-02-22 19:43:00,36.9,32.5,29.76,SE,135,9.7,10.2,84,0.00,,,0.00,WUHU216HW,2013-02-23 03:43:00,
2013-02-22 19:48:00,36.8,32.4,29.76,SE,135,4.4,10.2,84,0.00,,,0.00,WUHU216HW,2013-02-23 03:48:00,
2013-02-22 19:53:00,36.7,32.5,29.77,SSE,158,8.8,9.3,85,0.00,,,0.00,WUHU216HW,2013-02-23 03:53:00,
2013-02-22 19:58:00,36.5,32.4,29.77,ESE,113,5.9,9.3,85,0.00,,,0.00,WUHU216HW,2013-02-23 03:58:00,
2013-02-22 20:03:00,36.5,32.6,29.77,SE,135,3.6,6.2,86,0.00,,,0.00,WUHU216HW,2013-02-23 04:03:00,
2013-02-22 20:08:00,36.1,32.3,29.77,SE,135,2.9,6.0,86,0.00,,,0.00,WUHU216HW,2013-02-23 04:08:00,
2013-02-22 20:13:00,35.9,32.1,29.78,NE,45,2.5,3.1,86,0.00,,,0.00,WUHU216HW,2013-02-23 04:13:00,
2013-02-22 20:18:00,35.8,32.2,29.78,SE,135,0.0,5.5,87,0.00,,,0.00,WUHU216HW,2013-02-23 04:18:00,
2013-02-22 20:23:00,35.8,32.2,29.78,South,180,1.6,5.5,87,0.00,,,0.00,WUHU216HW,2013-02-23 04:23:00,
2013-02-22 20:29:00,35.6,32.1,29.78,North,0,3.6,4.0,87,0.00,,,0.00,WUHU216HW,2013-02-23 04:29:00,
2013-02-22 20:34:00,35.6,32.1,29.79,NE,45,3.3,4.0,87,0.00,,,0.00,WUHU216HW,2013-02-23 04:34:00,
2013-02-22 20:39:00,35.4,31.9,29.79,NNE,23,1.6,4.0,87,0.00,,,0.00,WUHU216HW,2013-02-23 04:39:00,
2013-02-22 20:44:00,35.2,31.7,29.79,NNE,23,0.6,3.8,87,0.00,,,0.00,WUHU216HW,2013-02-23 04:44:00,
2013-02-22 20:49:00,34.9,31.4,29.80,NNE,23,0.0,3.8,87,0.00,,,0.00,WUHU216HW,2013-02-23 04:49:00,
2013-02-22 20:54:00,34.7,31.2,29.80,WNW,293,0.0,2.0,87,0.00,,,0.00,WUHU216HW,2013-02-23 04:54:00,
2013-02-22 20:59:00,34.7,31.5,29.80,South,180,3.8,6.2,88,0.00,,,0.00,WUHU216HW,2013-02-23 04:59:00,
2013-02-22 21:00:00,34.7,31.5,29.80,SE,135,1.0,6.2,88,0.00,,,0.00,WUHU216HW,2013-02-23 05:00:00,
2013-02-22 21:05:00,35.0,31.5,29.81,SSW,203,1.9,5.3,87,0.00,,,0.00,WUHU216HW,2013-02-23 05:05:00,
2013-02-22 21:10:00,35.0,31.5,29.81,SSE,158,0.0,4.6,87,0.00,,,0.00,WUHU216HW,2013-02-23 05:10:00,
2013-02-22 21:15:00,34.7,31.2,29.81,SE,135,0.0,4.6,87,0.00,,,0.00,WUHU216HW,2013-02-23 05:15:00,
2013-02-22 21:21:00,34.7,31.2,29.81,SE,135,0.0,0.0,87,0.00,,,0.00,WUHU216HW,2013-02-23 05:21:00,
2013-02-22 21:26:00,34.1,30.6,29.81,SE,135,0.0,1.1,87,0.00,,,0.00,WUHU216HW,2013-02-23 05:26:00,
2013-02-22 21:31:00,34.0,30.8,29.82,SSE,158,0.0,5.3,88,0.00,,,0.00,WUHU216HW,2013-02-23 05:31:00,
2013-02-22 21:36:00,34.0,30.8,29.83,South,180,0.0,5.3,88,0.00,,,0.00,WUHU216HW,2013-02-23 05:36:00,
2013-02-22 21:41:00,33.8,30.6,29.83,SSE,158,5.0,5.3,88,0.00,,,0.00,WUHU216HW,2013-02-23 05:41:00,
2013-02-22 21:46:00,33.8,30.6,29.83,South,180,3.6,5.3,88,0.00,,,0.00,WUHU216HW,2013-02-23 05:46:00,
2013-02-22 21:51:00,34.0,30.8,29.83,SSE,158,0.0,7.6,88,0.00,,,0.00,WUHU216HW,2013-02-23 05:51:00,
2013-02-22 21:56:00,34.1,30.9,29.83,SSE,158,0.0,7.6,88,0.00,,,0.00,WUHU216HW,2013-02-23 05:56:00,
2013-02-22 22:01:00,34.1,30.9,29.84,South,180,0.0,7.8,88,0.00,,,0.00,WUHU216HW,2013-02-23 06:01:00,
2013-02-22 22:06:00,33.8,30.6,29.84,South,180,0.0,7.8,88,0.00,,,0.00,WUHU216HW,2013-02-23 06:06:00,
2013-02-22 22:11:00,33.6,30.4,29.84,SSW,203,1.2,2.2,88,0.00,,,0.00,WUHU216HW,2013-02-23 06:11:00,
2013-02-22 22:16:00,33.6,30.4,29.85,SSE,158,2.8,2.9,88,0.00,,,0.00,WUHU216HW,2013-02-23 06:16:00,
2013-02-22 22:21:00,33.6,30.7,29.84,SSE,158,1.0,2.9,89,0.00,,,0.00,WUHU216HW,2013-02-23 06:21:00,
2013-02-22 22:26:00,33.6,30.7,29.85,SSE,158,0.0,2.9,89,0.00,,,0.00,WUHU216HW,2013-02-23 06:26:00,
2013-02-22 22:31:00,33.6,30.7,29.85,SSE,158,0.0,2.6,89,0.00,,,0.00,WUHU216HW,2013-02-23 06:31:00,
2013-02-22 22:36:00,33.6,30.4,29.85,SSE,158,0.0,2.6,88,0.00,,,0.00,WUHU216HW,2013-02-23 06:36:00,
2013-02-22 22:41:00,33.4,30.2,29.85,SSE,158,0.0,2.0,88,0.00,,,0.00,WUHU216HW,2013-02-23 06:41:00,
2013-02-22 22:47:00,33.4,30.5,29.86,SSE,158,0.0,5.8,89,0.00,,,0.00,WUHU216HW,2013-02-23 06:47:00,
2013-02-22 22:52:00,33.1,30.2,29.87,SSE,158,0.0,5.8,89,0.00,,,0.00,WUHU216HW,2013-02-23 06:52:00,
2013-02-22 22:57:00,32.7,29.8,29.87,SSE,158,0.0,0.0,89,0.00,,,0.00,WUHU216HW,2013-02-23 06:57:00,
2013-02-22 23:02:00,32.3,29.7,29.87,ESE,113,0.0,0.0,90,0.00,,,0.00,WUHU216HW,2013-02-23 07:02:00,
2013-02-22 23:07:00,32.0,29.4,29.87,ESE,113,0.0,0.0,90,0.00,,,0.00,WUHU216HW,2013-02-23 07:07:00,
2013-02-22 23:12:00,32.0,29.7,29.87,NE,45,0.0,3.1,91,0.00,,,0.00,WUHU216HW,2013-02-23 07:12:00,
2013-02-22 23:17:00,31.9,29.5,29.87,NE,45,1.2,3.1,91,0.00,,,0.00,WUHU216HW,2013-02-23 07:17:00,
2013-02-22 23:22:00,31.7,29.5,29.87,SE,135,0.0,1.3,92,0.00,,,0.00,WUHU216HW,2013-02-23 07:22:00,
2013-02-22 23:27:00,31.5,29.4,29.87,SE,135,0.0,0.6,92,0.00,,,0.00,WUHU216HW,2013-02-23 07:27:00,
2013-02-22 23:33:00,31.7,29.5,29.87,SE,135,0.0,0.0,92,0.00,,,0.00,WUHU216HW,2013-02-23 07:33:00,
2013-02-22 23:38:00,32.2,30.1,29.87,SE,135,0.0,2.9,92,0.00,,,0.00,WUHU216HW,2013-02-23 07:38:00,
2013-02-22 23:43:00,32.3,30.2,29.87,SE,135,1.9,2.9,92,0.00,,,0.00,WUHU216HW,2013-02-23 07:43:00,
2013-02-22 23:48:00,32.5,30.4,29.88,SE,135,0.0,2.0,92,0.00,,,0.00,WUHU216HW,2013-02-23 07:48:00,
2013-02-22 23:53:00,32.5,30.4,29.88,SE,135,0.0,0.0,92,0.00,,,0.00,WUHU216HW,2013-02-23 07:53:00,
2013-02-22 23:58:00,32.5,30.4,29.88,SE,135,0.0,0.0,92,0.00,,,0.00,WUHU216HW,2013-02-23 07:58:00,